createdAt,value
2023-02-13T00:00:53.906Z,-1.13
2023-02-13T00:01:58.505Z,-1.14
2023-02-13T00:03:00.699Z,-1.14
2023-02-13T00:04:05.362Z,-1.17
2023-02-13T00:05:08.469Z,-1.21
2023-02-13T00:06:11.341Z,-1.19
2023-02-13T00:07:14.449Z,-1.18
2023-02-13T00:08:18.874Z,-1.20
2023-02-13T00:09:30.404Z,-1.23
2023-02-13T00:10:33.631Z,-1.36
2023-02-13T00:11:37.929Z,-1.30
2023-02-13T00:12:43.222Z,-1.22
2023-02-13T00:13:47.797Z,-1.22
2023-02-13T00:14:52.150Z,-1.20
2023-02-13T00:15:57.301Z,-1.26
2023-02-13T00:17:00.896Z,-1.30
2023-02-13T00:18:04.440Z,-1.43
2023-02-13T00:19:08.007Z,-1.46
2023-02-13T00:20:13.382Z,-1.45
2023-02-13T00:21:15.976Z,-1.44
2023-02-13T00:22:19.673Z,-1.40
2023-02-13T00:23:23.387Z,-1.39
2023-02-13T00:24:26.055Z,-1.33
2023-02-13T00:25:29.378Z,-1.33
2023-02-13T00:26:33.682Z,-1.34
2023-02-13T00:27:37.117Z,-1.38
2023-02-13T00:28:41.339Z,-1.40
2023-02-13T00:29:44.725Z,-1.42
2023-02-13T00:30:47.562Z,-1.62
2023-02-13T00:31:51.285Z,-1.55
2023-02-13T00:32:54.613Z,-1.55
2023-02-13T00:33:58.743Z,-1.50
2023-02-13T00:35:02.882Z,-1.54
2023-02-13T00:36:10.901Z,-1.61
2023-02-13T00:37:14.276Z,-1.71
2023-02-13T00:38:16.628Z,-1.69
2023-02-13T00:39:22.259Z,-1.72
2023-02-13T00:40:26.247Z,-1.66
2023-02-13T00:41:29.128Z,-1.59
2023-02-13T00:42:32.111Z,-1.56
2023-02-13T00:43:35.719Z,-1.57
2023-02-13T00:44:40.031Z,-1.71
2023-02-13T00:45:43.375Z,-1.74
2023-02-13T00:46:45.848Z,-1.84
2023-02-13T00:47:48.731Z,-1.84
2023-02-13T00:48:52.984Z,-2.00
2023-02-13T00:49:58.215Z,-1.99
2023-02-13T00:51:02.123Z,-2.02
2023-02-13T00:52:05.948Z,-1.96
2023-02-13T00:53:09.353Z,-1.90
2023-02-13T00:54:12.258Z,-1.81
2023-02-13T00:55:15.629Z,-1.94
2023-02-13T00:56:19.657Z,-1.97
2023-02-13T00:57:23.453Z,-1.92
2023-02-13T00:58:27.815Z,-1.91
2023-02-13T00:59:30.269Z,-1.88
2023-02-13T01:00:33.677Z,-1.98
2023-02-13T01:01:37.336Z,-1.99
2023-02-13T01:02:40.999Z,-1.93
2023-02-13T01:03:46.606Z,-1.91
2023-02-13T01:04:50.092Z,-1.94
2023-02-13T01:05:56.321Z,-1.91
2023-02-13T01:07:00.367Z,-1.91
2023-02-13T01:08:05.004Z,-1.91
2023-02-13T01:09:11.986Z,-1.91
2023-02-13T01:10:15.437Z,-1.96
2023-02-13T01:11:21.702Z,-2.01
2023-02-13T01:12:25.956Z,-2.00
2023-02-13T01:13:29.334Z,-2.05
2023-02-13T01:14:33.136Z,-2.15
2023-02-13T01:15:35.316Z,-2.17
2023-02-13T01:16:38.505Z,-2.24
2023-02-13T01:17:42.001Z,-2.40
2023-02-13T01:18:46.057Z,-2.42
2023-02-13T01:19:49.711Z,-2.49
2023-02-13T01:20:58.232Z,-2.54
2023-02-13T01:22:04.607Z,-2.60
2023-02-13T01:23:08.587Z,-2.56
2023-02-13T01:24:12.333Z,-2.57
2023-02-13T01:25:15.605Z,-2.54
2023-02-13T01:26:19.841Z,-2.52
2023-02-13T01:27:23.032Z,-2.59
2023-02-13T01:28:28.585Z,-2.54
2023-02-13T01:29:32.938Z,-2.52
2023-02-13T01:30:43.441Z,-2.57
2023-02-13T01:31:49.697Z,-2.58
2023-02-13T01:32:52.777Z,-2.58
2023-02-13T01:33:59.618Z,-2.55
2023-02-13T01:35:03.027Z,-2.54
2023-02-13T01:36:09.249Z,-2.59
2023-02-13T01:37:13.898Z,-2.53
2023-02-13T01:38:18.570Z,-2.53
2023-02-13T01:39:20.848Z,-2.53
2023-02-13T01:40:24.304Z,-2.53
2023-02-13T01:41:28.021Z,-2.51
2023-02-13T01:42:32.538Z,-2.49
2023-02-13T01:43:46.463Z,-2.51
2023-02-13T01:44:53.788Z,-2.47
2023-02-13T01:45:58.846Z,-2.41
2023-02-13T01:47:02.394Z,-2.42
2023-02-13T01:48:09.409Z,-2.38
2023-02-13T01:49:14.812Z,-2.35
2023-02-13T01:50:29.055Z,-2.31
2023-02-13T01:51:35.195Z,-2.30
2023-02-13T01:52:39.814Z,-2.24
2023-02-13T01:53:46.386Z,-2.20
2023-02-13T01:54:48.722Z,-2.17
2023-02-13T01:55:54.949Z,-2.16
2023-02-13T01:57:00.329Z,-2.19
2023-02-13T01:58:08.325Z,-2.22
2023-02-13T01:59:13.710Z,-2.18
2023-02-13T02:00:21.609Z,-2.20
2023-02-13T02:01:28.171Z,-2.17
2023-02-13T02:02:36.824Z,-2.19
2023-02-13T02:03:42.030Z,-2.16
2023-02-13T02:04:46.788Z,-2.18
2023-02-13T02:05:55.731Z,-2.18
2023-02-13T02:07:01.224Z,-2.10
2023-02-13T02:08:10.803Z,-2.08
2023-02-13T02:09:17.510Z,-2.03
2023-02-13T02:10:23.729Z,-2.03
2023-02-13T02:11:31.450Z,-1.94
2023-02-13T02:12:36.610Z,-1.97
2023-02-13T02:13:41.528Z,-1.99
2023-02-13T02:14:49.574Z,-1.92
2023-02-13T02:15:53.956Z,-1.92
2023-02-13T02:16:59.174Z,-1.90
2023-02-13T02:18:02.199Z,-2.01
2023-02-13T02:19:07.256Z,-1.98
2023-02-13T02:20:24.860Z,-1.93
2023-02-13T02:21:49.704Z,-1.90
2023-02-13T02:23:10.729Z,-1.98
2023-02-13T02:24:34.063Z,-2.06
2023-02-13T02:25:55.014Z,-2.06
2023-02-13T02:27:11.170Z,-2.06
2023-02-13T02:28:15.874Z,-2.06
2023-02-13T02:29:21.208Z,-1.98
2023-02-13T02:30:28.081Z,-2.01
2023-02-13T02:31:39.857Z,-1.99
2023-02-13T02:32:53.766Z,-1.90
2023-02-13T02:34:01.749Z,-1.85
2023-02-13T02:35:11.725Z,-1.80
2023-02-13T02:36:16.638Z,-1.76
2023-02-13T02:37:26.095Z,-1.78
2023-02-13T02:38:44.654Z,-1.78
2023-02-13T02:39:50.721Z,-1.68
2023-02-13T02:41:08.013Z,-1.67
2023-02-13T02:42:16.949Z,-1.68
2023-02-13T02:43:39.830Z,-1.69
2023-02-13T02:44:45.930Z,-1.64
2023-02-13T02:45:54.415Z,-1.63
2023-02-13T02:47:38.535Z,-1.70
2023-02-13T02:49:02.840Z,-1.74
2023-02-13T02:50:16.071Z,-1.71
2023-02-13T02:51:24.279Z,-1.75
2023-02-13T02:52:33.040Z,-1.70
2023-02-13T02:53:42.340Z,-1.82
2023-02-13T02:55:07.189Z,-1.73
2023-02-13T02:56:17.656Z,-1.73
2023-02-13T02:57:22.828Z,-1.70
2023-02-13T02:58:51.087Z,-1.66
2023-02-13T03:00:13.811Z,-1.65
2023-02-13T03:01:36.743Z,-1.66
2023-02-13T03:02:58.412Z,-1.65
2023-02-13T03:04:20.175Z,-1.64
2023-02-13T03:05:45.751Z,-1.64
2023-02-13T03:06:51.348Z,-1.66
2023-02-13T03:07:54.327Z,-1.62
2023-02-13T03:09:17.254Z,-1.67
2023-02-13T03:10:44.683Z,-1.65
2023-02-13T03:12:09.636Z,-1.69
2023-02-13T03:13:25.010Z,-1.67
2023-02-13T03:14:28.817Z,-1.65
2023-02-13T03:15:31.595Z,-1.65
2023-02-13T03:16:54.745Z,-1.66
2023-02-13T03:18:17.262Z,-1.69
2023-02-13T03:19:42.592Z,-1.65
2023-02-13T03:21:09.391Z,-1.65
2023-02-13T03:22:20.631Z,-1.67
2023-02-13T03:23:33.000Z,-1.71
2023-02-13T03:24:54.268Z,-1.71
2023-02-13T03:26:15.200Z,-1.81
2023-02-13T03:27:24.573Z,-1.84
2023-02-13T03:28:48.549Z,-1.84
2023-02-13T03:30:09.375Z,-1.93
2023-02-13T03:31:27.238Z,-1.90
2023-02-13T03:32:34.774Z,-1.85
2023-02-13T03:33:56.881Z,-1.74
2023-02-13T03:35:20.248Z,-1.73
2023-02-13T03:36:47.140Z,-1.78
2023-02-13T03:37:54.708Z,-1.73
2023-02-13T03:38:59.391Z,-1.79
2023-02-13T03:40:10.786Z,-1.82
2023-02-13T03:41:22.461Z,-1.88
2023-02-13T03:42:29.195Z,-1.83
2023-02-13T03:43:35.216Z,-1.78
2023-02-13T03:44:40.906Z,-1.94
2023-02-13T03:45:55.724Z,-1.93
2023-02-13T03:47:01.913Z,-1.95
2023-02-13T03:48:09.297Z,-1.93
2023-02-13T03:49:32.736Z,-1.88
2023-02-13T03:50:38.670Z,-1.88
2023-02-13T03:51:43.190Z,-1.99
2023-02-13T03:53:04.559Z,-2.01
2023-02-13T03:54:10.056Z,-2.00
2023-02-13T03:55:32.877Z,-1.95
2023-02-13T03:56:58.166Z,-1.93
2023-02-13T03:58:20.844Z,-1.85
2023-02-13T03:59:26.339Z,-1.88
2023-02-13T04:00:34.866Z,-1.84
2023-02-13T04:01:40.595Z,-1.88
2023-02-13T04:02:45.937Z,-1.91
2023-02-13T04:03:50.639Z,-1.90
2023-02-13T04:04:55.863Z,-1.91
2023-02-13T04:06:00.726Z,-1.98
2023-02-13T04:07:06.493Z,-1.94
2023-02-13T04:08:10.139Z,-1.93
2023-02-13T04:09:13.435Z,-1.88
2023-02-13T04:10:18.867Z,-1.93
2023-02-13T04:11:42.932Z,-1.95
2023-02-13T04:13:03.118Z,-2.00
2023-02-13T04:14:09.756Z,-1.89
2023-02-13T04:15:17.748Z,-1.82
2023-02-13T04:16:34.795Z,-1.81
2023-02-13T04:17:42.576Z,-1.81
2023-02-13T04:18:46.048Z,-1.92
2023-02-13T04:19:49.520Z,-1.91
2023-02-13T04:20:52.451Z,-2.06
2023-02-13T04:21:57.250Z,-2.12
2023-02-13T04:23:05.577Z,-2.22
2023-02-13T04:24:08.660Z,-2.09
2023-02-13T04:25:14.394Z,-2.06
2023-02-13T04:26:22.456Z,-2.09
2023-02-13T04:27:27.631Z,-2.00
2023-02-13T04:28:31.706Z,-2.35
2023-02-13T04:29:34.955Z,-2.22
2023-02-13T04:30:40.016Z,-2.20
2023-02-13T04:31:42.520Z,-2.18
2023-02-13T04:32:46.111Z,-2.16
2023-02-13T04:33:52.267Z,-2.14
2023-02-13T04:34:55.628Z,-2.07
2023-02-13T04:35:59.051Z,-2.07
2023-02-13T04:37:01.890Z,-1.95
2023-02-13T04:38:04.991Z,-2.02
2023-02-13T04:39:08.301Z,-2.13
2023-02-13T04:40:14.302Z,-2.06
2023-02-13T04:41:17.475Z,-2.04
2023-02-13T04:42:21.310Z,-2.19
2023-02-13T04:43:25.869Z,-2.22
2023-02-13T04:44:30.440Z,-2.03
2023-02-13T04:45:33.914Z,-2.10
2023-02-13T04:46:36.172Z,-2.00
2023-02-13T04:47:39.666Z,-1.86
2023-02-13T04:48:42.866Z,-2.03
2023-02-13T04:49:45.426Z,-1.95
2023-02-13T04:50:48.712Z,-2.08
2023-02-13T04:51:51.905Z,-1.99
2023-02-13T04:53:01.408Z,-1.94
2023-02-13T04:54:06.733Z,-1.85
2023-02-13T04:55:11.099Z,-1.78
2023-02-13T04:56:14.223Z,-1.66
2023-02-13T04:57:17.054Z,-1.59
2023-02-13T04:58:22.426Z,-1.56
2023-02-13T04:59:25.437Z,-1.54
2023-02-13T05:00:30.928Z,-1.60
2023-02-13T05:01:33.210Z,-1.57
2023-02-13T05:02:37.005Z,-1.47
2023-02-13T05:03:41.141Z,-1.42
2023-02-13T05:04:44.791Z,-1.33
2023-02-13T05:05:47.913Z,-1.24
2023-02-13T05:06:51.328Z,-1.16
2023-02-13T05:07:55.144Z,-1.18
2023-02-13T05:08:58.886Z,-1.11
2023-02-13T05:10:03.350Z,-1.12
2023-02-13T05:11:07.125Z,-0.95
2023-02-13T05:12:11.673Z,-0.88
2023-02-13T05:13:17.986Z,-0.85
2023-02-13T05:14:22.638Z,-0.81
2023-02-13T05:15:28.758Z,-0.77
2023-02-13T05:16:31.748Z,-0.79
2023-02-13T05:17:34.985Z,-0.80
2023-02-13T05:18:39.376Z,-0.83
2023-02-13T05:19:41.732Z,-0.78
2023-02-13T05:20:44.516Z,-0.80
2023-02-13T05:22:06.392Z,-0.75
2023-02-13T05:23:23.580Z,-0.74
2023-02-13T05:24:26.555Z,-0.65
2023-02-13T05:25:29.974Z,-0.45
2023-02-13T05:26:32.317Z,-0.50
2023-02-13T05:27:36.147Z,-0.48
2023-02-13T05:28:58.975Z,-0.52
2023-02-13T05:30:02.192Z,-0.48
2023-02-13T05:31:05.847Z,-0.39
2023-02-13T05:32:08.950Z,-0.30
2023-02-13T05:33:13.648Z,-0.30
2023-02-13T05:34:18.837Z,-0.17
2023-02-13T05:35:23.864Z,-0.17
2023-02-13T05:36:27.376Z,-0.22
2023-02-13T05:37:30.590Z,-0.10
2023-02-13T05:38:34.490Z,-0.02
2023-02-13T05:39:37.892Z,-0.08
2023-02-13T05:40:40.550Z,-0.07
2023-02-13T05:41:45.544Z,-0.04
2023-02-13T05:42:49.262Z,-0.01
2023-02-13T05:43:53.898Z,0.02
2023-02-13T05:44:57.193Z,0.02
2023-02-13T05:46:04.594Z,0.05
2023-02-13T05:47:08.067Z,0.07
2023-02-13T05:49:15.288Z,0.11
2023-02-13T05:50:18.886Z,0.18
2023-02-13T05:51:22.197Z,0.20
2023-02-13T05:52:24.539Z,0.26
2023-02-13T05:53:27.425Z,0.34
2023-02-13T05:54:30.827Z,0.34
2023-02-13T05:55:32.964Z,0.33
2023-02-13T05:56:36.486Z,0.30
2023-02-13T05:57:39.981Z,0.25
2023-02-13T05:58:43.695Z,0.38
2023-02-13T05:59:48.745Z,0.31
2023-02-13T06:00:53.211Z,0.41
2023-02-13T06:01:58.868Z,0.54
2023-02-13T06:03:02.085Z,0.64
2023-02-13T06:04:05.670Z,0.51
2023-02-13T06:05:09.025Z,0.49
2023-02-13T06:06:11.454Z,0.58
2023-02-13T06:07:14.977Z,0.62
2023-02-13T06:08:19.004Z,0.51
2023-02-13T06:09:22.817Z,0.35
2023-02-13T06:10:27.469Z,0.49
2023-02-13T06:11:30.724Z,0.46
2023-02-13T06:12:37.288Z,0.46
2023-02-13T06:13:41.743Z,0.26
2023-02-13T06:14:45.144Z,0.41
2023-02-13T06:15:47.740Z,0.35
2023-02-13T06:16:50.486Z,0.30
2023-02-13T06:17:53.533Z,0.43
2023-02-13T06:18:57.107Z,0.52
2023-02-13T06:20:01.113Z,0.50
2023-02-13T06:21:04.344Z,0.37
2023-02-13T06:22:07.572Z,0.65
2023-02-13T06:23:10.863Z,0.30
2023-02-13T06:24:13.660Z,0.55
2023-02-13T06:25:16.215Z,0.56
2023-02-13T06:26:19.579Z,0.73
2023-02-13T06:27:23.716Z,0.96
2023-02-13T06:28:27.878Z,1.04
2023-02-13T06:29:33.901Z,1.05
2023-02-13T06:30:36.515Z,1.18
2023-02-13T06:31:39.967Z,1.20
2023-02-13T06:32:43.569Z,1.26
2023-02-13T06:33:46.980Z,1.23
2023-02-13T06:34:50.123Z,1.27
2023-02-13T06:35:56.532Z,1.34
2023-02-13T06:36:59.677Z,1.39
2023-02-13T06:38:02.338Z,1.56
2023-02-13T06:39:05.733Z,1.60
2023-02-13T06:40:09.360Z,1.55
2023-02-13T06:41:12.783Z,1.63
2023-02-13T06:42:15.557Z,1.47
2023-02-13T06:43:19.679Z,1.54
2023-02-13T06:44:22.996Z,1.65
2023-02-13T06:45:26.674Z,1.68
2023-02-13T06:46:29.983Z,1.56
2023-02-13T06:47:33.277Z,1.70
2023-02-13T06:48:36.471Z,1.96
2023-02-13T06:49:39.977Z,2.09
2023-02-13T06:50:42.331Z,2.16
2023-02-13T06:51:45.731Z,2.28
2023-02-13T06:52:49.344Z,1.96
2023-02-13T06:53:52.748Z,2.11
2023-02-13T06:54:56.558Z,1.93
2023-02-13T06:56:01.005Z,2.13
2023-02-13T06:57:03.766Z,2.28
2023-02-13T06:58:08.292Z,2.42
2023-02-13T06:59:10.987Z,2.52
2023-02-13T07:00:15.688Z,2.63
2023-02-13T07:01:19.120Z,2.61
2023-02-13T07:02:22.568Z,2.58
2023-02-13T07:03:25.736Z,2.75
2023-02-13T07:04:29.510Z,2.89
2023-02-13T07:05:33.386Z,2.72
2023-02-13T07:06:36.567Z,2.86
2023-02-13T07:07:42.657Z,2.75
2023-02-13T07:08:45.907Z,2.95
2023-02-13T07:09:49.276Z,2.95
2023-02-13T07:10:52.598Z,2.81
2023-02-13T07:11:57.234Z,2.83
2023-02-13T07:13:06.005Z,2.85
2023-02-13T07:15:23.625Z,3.14
2023-02-13T07:16:26.908Z,3.15
2023-02-13T07:17:30.625Z,3.33
2023-02-13T07:18:33.298Z,3.45
2023-02-13T07:19:38.501Z,2.95
2023-02-13T07:20:41.634Z,3.20
2023-02-13T07:21:44.342Z,3.09
2023-02-13T07:22:47.848Z,3.22
2023-02-13T07:23:54.469Z,3.42
2023-02-13T07:24:58.722Z,3.58
2023-02-13T07:26:02.839Z,3.65
2023-02-13T07:27:07.403Z,3.71
2023-02-13T07:28:10.473Z,3.64
2023-02-13T07:29:13.895Z,3.57
2023-02-13T07:30:18.412Z,3.55
2023-02-13T07:31:22.539Z,3.51
2023-02-13T07:32:27.400Z,3.82
2023-02-13T07:33:30.944Z,3.70
2023-02-13T07:34:35.633Z,3.64
2023-02-13T07:35:39.763Z,3.83
2023-02-13T07:36:43.153Z,3.90
2023-02-13T07:37:45.558Z,4.02
2023-02-13T07:38:48.885Z,4.24
2023-02-13T07:39:52.493Z,4.16
2023-02-13T07:40:58.216Z,4.03
2023-02-13T07:42:00.836Z,4.13
2023-02-13T07:43:04.167Z,4.24
2023-02-13T07:44:06.828Z,4.00
2023-02-13T07:45:10.293Z,4.00
2023-02-13T07:46:13.733Z,4.26
2023-02-13T07:47:19.002Z,4.00
2023-02-13T07:48:23.354Z,3.98
2023-02-13T07:49:26.870Z,4.26
2023-02-13T07:50:30.460Z,3.94
2023-02-13T07:51:35.126Z,4.11
2023-02-13T07:52:38.951Z,4.16
2023-02-13T07:53:45.186Z,4.11
2023-02-13T07:54:51.154Z,4.15
2023-02-13T07:55:54.404Z,4.02
2023-02-13T07:56:59.893Z,4.26
2023-02-13T07:58:06.521Z,4.22
2023-02-13T07:59:11.578Z,3.70
2023-02-13T08:00:15.801Z,3.85
2023-02-13T08:01:21.423Z,4.05
2023-02-13T08:02:23.962Z,4.41
2023-02-13T08:03:26.355Z,4.59
2023-02-13T08:04:30.136Z,4.58
2023-02-13T08:05:34.237Z,4.74
2023-02-13T08:06:39.345Z,4.55
2023-02-13T08:07:42.631Z,4.46
2023-02-13T08:08:48.336Z,4.56
2023-02-13T08:10:10.442Z,4.41
2023-02-13T08:11:34.969Z,4.38
2023-02-13T08:12:38.737Z,4.50
2023-02-13T08:13:41.509Z,4.46
2023-02-13T08:14:44.530Z,4.30
2023-02-13T08:15:47.072Z,4.42
2023-02-13T08:16:50.824Z,4.25
2023-02-13T08:17:55.430Z,4.27
2023-02-13T08:18:58.946Z,4.37
2023-02-13T08:20:02.654Z,4.12
2023-02-13T08:21:06.076Z,4.26
2023-02-13T08:22:08.840Z,4.10
2023-02-13T08:23:12.920Z,3.97
2023-02-13T08:24:16.560Z,3.83
2023-02-13T08:25:23.331Z,4.01
2023-02-13T08:26:26.980Z,4.33
2023-02-13T08:27:30.369Z,4.26
2023-02-13T08:28:33.887Z,4.30
2023-02-13T08:29:37.432Z,4.44
2023-02-13T08:30:40.305Z,4.69
2023-02-13T08:31:45.016Z,4.66
2023-02-13T08:32:54.243Z,4.78
2023-02-13T08:33:53.322Z,5.08
2023-02-13T08:34:56.783Z,5.67
2023-02-13T08:36:03.590Z,7.67
2023-02-13T08:37:07.096Z,11.11
2023-02-13T08:38:10.589Z,11.62
2023-02-13T08:39:14.097Z,9.91
2023-02-13T08:40:18.578Z,9.41
2023-02-13T08:41:30.639Z,8.89
2023-02-13T08:42:33.791Z,7.87
2023-02-13T08:43:37.925Z,7.38
2023-02-13T08:44:42.055Z,6.75
2023-02-13T08:45:45.674Z,6.57
2023-02-13T08:46:49.182Z,6.08
2023-02-13T08:47:54.137Z,5.82
2023-02-13T08:49:00.098Z,5.77
2023-02-13T08:50:03.350Z,5.69
2023-02-13T08:51:09.966Z,5.94
2023-02-13T08:52:13.286Z,6.47
2023-02-13T08:53:16.468Z,6.45
2023-02-13T08:54:21.568Z,6.55
2023-02-13T08:55:24.954Z,6.57
2023-02-13T08:56:28.270Z,6.47
2023-02-13T08:57:30.915Z,6.97
2023-02-13T08:58:35.497Z,7.47
2023-02-13T08:59:39.177Z,7.55
2023-02-13T09:00:43.934Z,7.92
2023-02-13T09:01:46.385Z,7.72
2023-02-13T09:02:51.486Z,7.29
2023-02-13T09:03:55.677Z,7.00
2023-02-13T09:05:01.845Z,6.60
2023-02-13T09:06:05.484Z,6.37
2023-02-13T09:07:11.138Z,5.98
2023-02-13T09:08:14.619Z,5.96
2023-02-13T09:09:17.919Z,5.72
2023-02-13T09:10:20.704Z,5.39
2023-02-13T09:11:25.011Z,5.40
2023-02-13T09:12:28.380Z,5.12
2023-02-13T09:13:35.046Z,5.00
2023-02-13T09:14:40.805Z,4.73
2023-02-13T09:15:47.211Z,4.79
2023-02-13T09:16:49.576Z,4.46
2023-02-13T09:17:53.597Z,4.30
2023-02-13T09:18:56.903Z,4.47
2023-02-13T09:20:00.293Z,4.57
2023-02-13T09:21:05.356Z,4.59
2023-02-13T09:22:08.665Z,4.32
2023-02-13T09:23:12.055Z,4.25
2023-02-13T09:24:15.047Z,4.43
2023-02-13T09:25:23.603Z,4.39
2023-02-13T09:26:26.965Z,4.42
2023-02-13T09:27:31.410Z,4.56
2023-02-13T09:28:34.701Z,4.53
2023-02-13T09:29:40.859Z,4.36
2023-02-13T09:30:44.026Z,4.01
2023-02-13T09:31:50.893Z,4.19
2023-02-13T09:32:56.248Z,4.24
2023-02-13T09:33:59.428Z,4.04
2023-02-13T09:35:01.600Z,3.78
2023-02-13T09:36:08.960Z,3.82
2023-02-13T09:37:12.274Z,4.04
2023-02-13T09:39:43.808Z,4.18
2023-02-13T09:40:52.737Z,4.38
2023-02-13T09:41:57.295Z,4.24
2023-02-13T09:43:01.754Z,4.15
2023-02-13T09:44:14.107Z,4.03
2023-02-13T09:45:18.684Z,4.10
2023-02-13T09:46:30.153Z,4.13
2023-02-13T09:47:45.835Z,4.42
2023-02-13T09:48:52.063Z,4.30
2023-02-13T09:49:56.508Z,4.42
2023-02-13T09:51:00.235Z,4.60
2023-02-13T09:52:05.713Z,4.82
2023-02-13T09:53:10.990Z,4.75
2023-02-13T09:54:15.680Z,4.50
2023-02-13T09:55:20.510Z,4.46
2023-02-13T09:56:45.729Z,4.59
2023-02-13T09:58:08.771Z,4.47
2023-02-13T09:59:26.064Z,4.58
2023-02-13T10:00:33.225Z,4.59
2023-02-13T10:01:41.880Z,4.76
2023-02-13T10:03:01.969Z,4.75
2023-02-13T10:04:16.528Z,4.90
2023-02-13T10:05:26.338Z,5.02
2023-02-13T10:06:35.592Z,5.06
2023-02-13T10:07:41.674Z,5.02
2023-02-13T10:08:52.317Z,5.23
2023-02-13T10:09:59.649Z,5.43
2023-02-13T10:11:10.469Z,5.76
2023-02-13T10:12:15.826Z,5.81
2023-02-13T10:13:37.139Z,5.81
2023-02-13T10:14:41.652Z,5.93
2023-02-13T10:16:04.236Z,5.82
2023-02-13T10:17:11.660Z,5.94
2023-02-13T10:18:20.073Z,5.98
2023-02-13T10:19:29.068Z,5.54
2023-02-13T10:20:38.973Z,5.30
2023-02-13T10:21:47.074Z,5.39
2023-02-13T10:22:51.896Z,5.84
2023-02-13T10:23:57.084Z,5.98
2023-02-13T10:25:05.542Z,6.18
2023-02-13T10:26:10.716Z,6.18
2023-02-13T10:27:14.738Z,6.27
2023-02-13T10:28:19.331Z,6.39
2023-02-13T10:29:45.983Z,6.49
2023-02-13T10:30:52.220Z,6.44
2023-02-13T10:31:56.162Z,6.40
2023-02-13T10:33:20.738Z,6.18
2023-02-13T10:34:26.010Z,5.95
2023-02-13T10:35:31.716Z,5.90
2023-02-13T10:36:39.809Z,5.62
2023-02-13T10:37:43.629Z,5.67
2023-02-13T10:38:49.123Z,5.60
2023-02-13T10:39:55.540Z,5.49
2023-02-13T10:41:02.728Z,5.54
2023-02-13T10:42:23.942Z,5.37
2023-02-13T10:43:29.455Z,5.48
2023-02-13T10:44:43.032Z,5.56
2023-02-13T10:46:03.243Z,5.42
2023-02-13T10:47:20.283Z,5.55
2023-02-13T10:48:26.113Z,5.17
2023-02-13T10:49:40.466Z,5.18
2023-02-13T10:50:57.400Z,5.04
2023-02-13T10:52:01.579Z,5.25
2023-02-13T10:53:07.898Z,5.24
2023-02-13T10:54:15.606Z,5.30
2023-02-13T10:55:20.679Z,5.61
2023-02-13T10:56:37.433Z,5.59
2023-02-13T10:57:43.528Z,5.42
2023-02-13T10:58:49.057Z,5.35
2023-02-13T10:59:54.620Z,5.16
2023-02-13T11:00:59.050Z,5.40
2023-02-13T11:02:16.460Z,5.29
2023-02-13T11:03:21.636Z,5.06
2023-02-13T11:04:25.616Z,5.28
2023-02-13T11:05:33.572Z,5.66
2023-02-13T11:06:38.630Z,5.89
2023-02-13T11:07:41.910Z,5.87
2023-02-13T11:08:46.879Z,5.78
2023-02-13T11:09:52.918Z,5.88
2023-02-13T11:10:59.351Z,6.12
2023-02-13T11:12:05.552Z,6.27
2023-02-13T11:14:27.704Z,6.28
2023-02-13T11:15:31.337Z,6.16
2023-02-13T11:16:49.251Z,6.13
2023-02-13T11:17:53.912Z,5.96
2023-02-13T11:18:57.485Z,5.88
2023-02-13T11:20:02.004Z,5.86
2023-02-13T11:21:09.415Z,5.53
2023-02-13T11:22:13.652Z,5.69
2023-02-13T11:23:27.721Z,5.95
2023-02-13T11:24:32.044Z,6.17
2023-02-13T11:25:35.437Z,6.32
2023-02-13T11:26:45.085Z,6.29
2023-02-13T11:27:47.766Z,6.18
2023-02-13T11:28:53.379Z,5.96
2023-02-13T11:29:58.552Z,6.22
2023-02-13T11:31:14.969Z,6.12
2023-02-13T11:32:19.688Z,5.84
2023-02-13T11:33:25.358Z,5.85
2023-02-13T11:34:30.431Z,5.30
2023-02-13T11:35:36.342Z,5.36
2023-02-13T11:36:39.528Z,5.40
2023-02-13T11:37:43.665Z,5.47
2023-02-13T11:38:50.066Z,5.79
2023-02-13T11:39:55.065Z,5.85
2023-02-13T11:41:07.319Z,5.78
2023-02-13T11:42:19.132Z,5.98
2023-02-13T11:43:27.093Z,5.62
2023-02-13T11:44:31.963Z,5.74
2023-02-13T11:45:34.508Z,5.96
2023-02-13T11:46:45.934Z,6.13
2023-02-13T11:47:53.645Z,6.23
2023-02-13T11:48:58.611Z,6.28
2023-02-13T11:50:02.771Z,6.16
2023-02-13T11:51:05.309Z,5.92
2023-02-13T11:52:10.594Z,5.94
2023-02-13T11:53:18.378Z,5.72
2023-02-13T11:54:38.940Z,5.70
2023-02-13T11:55:46.004Z,5.81
2023-02-13T11:57:04.108Z,5.68
2023-02-13T11:58:00.703Z,5.54
2023-02-13T11:59:05.002Z,5.51
2023-02-13T12:00:29.022Z,5.66
2023-02-13T12:01:32.945Z,5.79
2023-02-13T12:02:47.715Z,5.81
2023-02-13T12:04:08.681Z,5.70
2023-02-13T12:05:17.095Z,5.61
2023-02-13T12:06:22.762Z,5.86
2023-02-13T12:07:26.610Z,5.83
2023-02-13T12:08:30.856Z,5.71
2023-02-13T12:09:35.491Z,5.84
2023-02-13T12:10:40.858Z,5.85
2023-02-13T12:11:48.386Z,6.06
2023-02-13T12:12:55.406Z,6.10
2023-02-13T12:14:01.736Z,6.04
2023-02-13T12:15:06.491Z,5.90
2023-02-13T12:16:15.630Z,5.78
2023-02-13T12:17:31.178Z,5.91
2023-02-13T12:18:30.700Z,5.99
2023-02-13T12:19:44.963Z,5.83
2023-02-13T12:20:55.765Z,5.77
2023-02-13T12:22:01.581Z,5.93
2023-02-13T12:23:05.705Z,6.08
2023-02-13T12:24:16.312Z,6.09
2023-02-13T12:25:27.978Z,6.21
2023-02-13T12:26:45.675Z,6.15
2023-02-13T12:27:49.809Z,6.04
2023-02-13T12:28:54.045Z,6.15
2023-02-13T12:30:07.378Z,6.23
2023-02-13T12:31:16.573Z,6.30
2023-02-13T12:32:30.885Z,6.28
2023-02-13T12:33:37.932Z,6.16
2023-02-13T12:34:44.271Z,6.03
2023-02-13T12:35:55.398Z,5.95
2023-02-13T12:37:07.762Z,5.79
2023-02-13T12:38:25.215Z,5.77
2023-02-13T12:39:30.584Z,5.72
2023-02-13T12:40:47.956Z,5.78
2023-02-13T12:41:54.128Z,5.85
2023-02-13T12:43:05.309Z,5.87
2023-02-13T12:44:11.521Z,5.77
2023-02-13T12:45:21.812Z,5.71
2023-02-13T12:46:27.113Z,5.74
2023-02-13T12:47:32.207Z,5.54
2023-02-13T12:48:46.751Z,5.46
2023-02-13T12:50:07.702Z,5.68
2023-02-13T12:51:14.849Z,5.64
2023-02-13T12:52:34.135Z,5.68
2023-02-13T12:53:47.146Z,5.68
2023-02-13T12:54:55.768Z,5.72
2023-02-13T12:56:01.764Z,5.51
2023-02-13T12:57:09.568Z,5.37
2023-02-13T12:58:20.169Z,5.34
2023-02-13T12:59:33.806Z,5.49
2023-02-13T13:00:39.096Z,5.41
2023-02-13T13:01:53.240Z,5.33
2023-02-13T13:03:16.081Z,5.49
2023-02-13T13:04:36.921Z,5.65
2023-02-13T13:05:47.659Z,5.62
2023-02-13T13:07:01.262Z,5.61
2023-02-13T13:08:12.137Z,5.44
2023-02-13T13:09:19.033Z,5.40
2023-02-13T13:10:26.307Z,5.62
2023-02-13T13:11:39.413Z,5.53
2023-02-13T13:12:53.572Z,5.24
2023-02-13T13:13:59.905Z,5.05
2023-02-13T13:15:08.098Z,5.19
2023-02-13T13:16:22.497Z,5.13
2023-02-13T13:17:46.978Z,5.19
2023-02-13T13:18:52.038Z,5.40
2023-02-13T13:19:58.780Z,5.43
2023-02-13T13:21:12.939Z,5.35
2023-02-13T13:22:18.118Z,5.38
2023-02-13T13:23:23.418Z,5.35
2023-02-13T13:24:30.986Z,5.26
2023-02-13T13:25:45.562Z,5.43
2023-02-13T13:26:53.548Z,5.60
2023-02-13T13:27:58.871Z,5.63
2023-02-13T13:29:03.064Z,5.35
2023-02-13T13:30:28.900Z,5.48
2023-02-13T13:31:33.535Z,5.36
2023-02-13T13:32:37.406Z,5.80
2023-02-13T13:33:43.441Z,5.91
2023-02-13T13:34:49.311Z,5.79
2023-02-13T13:36:04.526Z,5.74
2023-02-13T13:37:10.799Z,5.69
2023-02-13T13:38:19.150Z,5.56
2023-02-13T13:39:25.748Z,5.72
2023-02-13T13:40:37.321Z,5.80
2023-02-13T13:41:47.223Z,5.86
2023-02-13T13:43:08.789Z,5.64
2023-02-13T13:44:13.969Z,5.56
2023-02-13T13:45:37.222Z,5.32
2023-02-13T13:46:41.235Z,5.08
2023-02-13T13:47:57.086Z,4.97
2023-02-13T13:49:07.462Z,5.08
2023-02-13T13:50:15.920Z,4.98
2023-02-13T13:51:22.323Z,5.14
2023-02-13T13:52:29.305Z,5.18
2023-02-13T13:53:32.482Z,5.04
2023-02-13T13:54:38.349Z,4.91
2023-02-13T13:55:51.977Z,5.00
2023-02-13T13:56:59.376Z,5.00
2023-02-13T13:58:02.880Z,4.77
2023-02-13T13:59:08.371Z,4.69
2023-02-13T14:00:14.644Z,4.60
2023-02-13T14:01:19.818Z,4.68
2023-02-13T14:02:24.256Z,4.69
2023-02-13T14:03:32.351Z,4.65
2023-02-13T14:04:41.796Z,4.84
2023-02-13T14:05:59.155Z,4.89
2023-02-13T14:07:05.597Z,4.70
2023-02-13T14:08:26.548Z,4.78
2023-02-13T14:09:33.079Z,4.75
2023-02-13T14:10:38.557Z,4.73
2023-02-13T14:11:45.841Z,4.85
2023-02-13T14:12:51.332Z,4.74
2023-02-13T14:13:55.040Z,4.62
2023-02-13T14:14:59.584Z,4.50
2023-02-13T14:16:03.992Z,4.50
2023-02-13T14:17:09.298Z,4.47
2023-02-13T14:18:15.337Z,4.53
2023-02-13T14:19:23.537Z,4.55
2023-02-13T14:20:31.112Z,4.58
2023-02-13T14:21:35.358Z,4.51
2023-02-13T14:22:42.710Z,4.43
2023-02-13T14:23:54.919Z,4.28
2023-02-13T14:25:00.578Z,4.29
2023-02-13T14:26:13.611Z,4.34
2023-02-13T14:27:24.511Z,4.41
2023-02-13T14:28:30.460Z,4.44
2023-02-13T14:29:35.526Z,4.38
2023-02-13T14:30:40.940Z,4.22
2023-02-13T14:31:46.625Z,4.17
2023-02-13T14:32:50.495Z,4.17
2023-02-13T14:33:59.436Z,4.22
2023-02-13T14:35:05.745Z,4.16
2023-02-13T14:36:10.520Z,4.01
2023-02-13T14:37:16.526Z,4.08
2023-02-13T14:38:24.523Z,4.12
2023-02-13T14:39:31.580Z,4.18
2023-02-13T14:40:53.466Z,4.21
2023-02-13T14:41:58.434Z,4.33
2023-02-13T14:43:20.532Z,4.29
2023-02-13T14:44:35.946Z,4.27
2023-02-13T14:45:40.184Z,4.35
2023-02-13T14:46:48.985Z,4.37
2023-02-13T14:47:54.178Z,4.26